Wyocena, Wisconsin
Current Conditions -  °F | °C
As of 2:15 PM on Wednesday 26 Nov 2014 (Local Time) from KDLL Reporting Station
Haze Haze  
Wind Chill: 20°   Ceiling: 900
Heat Index: 20°   Visibility: 5mi
Dew Point: 18°   Wind: 3mph
Humidity: 91%   Direction: 20°NNE
Pressure: 30.14"   Gusts: NA
Location:  43.5°N, 89.31°W
Report Text: KDLL 262015Z AUTO 02003KT 5SM BR OVC009 M06/M08 A3014 RMK AO2 T10651077
Loading
Personal Weather Stations






























Interactive Weather Map New forecast layout! Learn more

10-Day Weather Forecast

Advertisements
Track Severe Weather on mobile